MSC Bari — A8YD3 — position and weather

sailwx.info

Track history (hours):
 
Tides and Currents Weather Stations Pressure Air Temp Water Temp Dewpoint Dewpoint Depression Visibility Wind Speed Wind Dir Waves Ship Positions

MSC Bari

Last reported at 2016-Dec-05 10:00 UTC. Time now 2016-Dec-10 10:48 UTC.
Position N 12°24' E 044°06'.

Length 366 m; draft 15.1 m.

Type: Ship (hazmat cat A). MMSI: 636092188.

Wind from 170 at 14 knots

Barometer 1017.8 mb
Air temperature 25.0 ° C
Visibility: greater than 10.8 NM
Dewpoint 22.0 ° C
Water temperature 27.7 ° C

Date/timePositionNaut miles runAvg speedWind from/ knotsBaromVisibWave heightAir tempDewpointWater temp
2016-Dec-05 10:00N 12°24' E 044°06'40517.6 170 / 141017.810.8 25.022.027.7
2016-Dec-04 11:00N 18°00' E 040°12'   200 / 81017.910.8 29.024.830.6
2016-Nov-28 00:15N 37°23' E 023°52'7 9.6
2016-Nov-27 23:33N 37°30' E 023°49'1010.2
2016-Nov-27 22:33N 37°39' E 023°43'1110.9
2016-Nov-27 21:34N 37°49' E 023°37'8 8.3
2016-Nov-27 20:32N 37°57' E 023°35'0 0.3
2016-Nov-27 19:32N 37°57' E 023°35'0 0.0
2016-Nov-27 18:32N 37°57' E 023°35'0 0.0
2016-Nov-27 17:32N 37°57' E 023°35'0 0.0
2016-Nov-27 16:32N 37°57' E 023°35'0 0.0
2016-Nov-27 15:32N 37°57' E 023°35'0 0.0
2016-Nov-27 14:32N 37°57' E 023°35'0 0.0
2016-Nov-27 13:32N 37°57' E 023°35'0 0.0
2016-Nov-27 12:32N 37°57' E 023°35'0 0.0
2016-Nov-27 11:32N 37°57' E 023°35'0 0.0
2016-Nov-27 10:32N 37°57' E 023°35'0 0.0
2016-Nov-27 09:32N 37°57' E 023°35'0 0.0
2016-Nov-27 08:32N 37°57' E 023°35'0 0.0
2016-Nov-27 07:33N 37°57' E 023°35'0 0.0
2016-Nov-27 06:32N 37°57' E 023°35'0 0.0
2016-Nov-27 05:32N 37°57' E 023°35'0 0.0
2016-Nov-27 04:32N 37°57' E 023°35'0 0.0
2016-Nov-27 03:32N 37°57' E 023°35'0 0.0
2016-Nov-27 02:32N 37°57' E 023°35'0 0.0
2016-Nov-27 01:32N 37°57' E 023°35'0 0.0
2016-Nov-27 00:32N 37°57' E 023°35'0 0.0
2016-Nov-26 23:32N 37°57' E 023°35'0 0.0
2016-Nov-26 22:32N 37°57' E 023°35'0 0.0
2016-Nov-26 21:32N 37°57' E 023°35'0 0.0
2016-Nov-26 20:32N 37°57' E 023°35'0 0.0
2016-Nov-26 19:32N 37°57' E 023°35'0 0.0
2016-Nov-26 18:32N 37°57' E 023°35'0 0.0
2016-Nov-26 17:32N 37°57' E 023°35'2 1.8
2016-Nov-26 16:34N 37°56' E 023°34'2 2.4
2016-Nov-26 15:33N 37°53' E 023°36'2 2.5
2016-Nov-26 14:33N 37°52' E 023°33'1 1.0
2016-Nov-26 13:33N 37°51' E 023°34'0 0.4
2016-Nov-26 12:33N 37°50' E 023°34'2 1.9
2016-Nov-26 11:34N 37°52' E 023°35'1 0.9
2016-Nov-26 10:34N 37°53' E 023°35'1 0.7
2016-Nov-26 09:33N 37°52' E 023°35'1 0.7
2016-Nov-26 08:33N 37°52' E 023°36'1 0.8
2016-Nov-26 07:33N 37°51' E 023°36'0 0.5
2016-Nov-26 06:33N 37°51' E 023°37'2 2.5
2016-Nov-26 05:33N 37°53' E 023°35'1 0.8
2016-Nov-26 04:33N 37°54' E 023°35'6 6.5
2016-Nov-26 03:34N 37°49' E 023°40'10 9.5
2016-Nov-26 02:34N 37°41' E 023°46'1413.9
2016-Nov-26 01:33N 37°36' E 024°03'1817.7
2016-Nov-26 00:33N 37°47' E 024°21'13817.2
2016-Nov-25 16:33N 39°48' E 025°45'2116.5
2016-Nov-25 15:18N 40°01' E 026°06'  
Track history (hours):
 
Tides and Currents Weather Stations Pressure Air Temp Water Temp Dewpoint Dewpoint Depression Visibility Wind Speed Wind Dir Waves Ship Positions

MSC Bari

Last reported at 2016-Dec-05 10:00 UTC. Time now 2016-Dec-10 10:48 UTC.
Position N 12°24' E 044°06'.

Length 366 m; draft 15.1 m.

Type: Ship (hazmat cat A). MMSI: 636092188.

Wind from 170 at 14 knots

Barometer 1017.8 mb
Air temperature 25.0 ° C
Visibility: greater than 10.8 NM
Dewpoint 22.0 ° C
Water temperature 27.7 ° C

Date/timePositionNaut miles runAvg speedWind from/ knotsBaromVisibWave heightAir tempDewpointWater temp
2016-Dec-05 10:00N 12°24' E 044°06'40517.6 170 / 141017.810.8 25.022.027.7
2016-Dec-04 11:00N 18°00' E 040°12'   200 / 81017.910.8 29.024.830.6
2016-Nov-28 00:15N 37°23' E 023°52'7 9.6
2016-Nov-27 23:33N 37°30' E 023°49'1010.2
2016-Nov-27 22:33N 37°39' E 023°43'1110.9
2016-Nov-27 21:34N 37°49' E 023°37'8 8.3
2016-Nov-27 20:32N 37°57' E 023°35'0 0.3
2016-Nov-27 19:32N 37°57' E 023°35'0 0.0
2016-Nov-27 18:32N 37°57' E 023°35'0 0.0
2016-Nov-27 17:32N 37°57' E 023°35'0 0.0
2016-Nov-27 16:32N 37°57' E 023°35'0 0.0
2016-Nov-27 15:32N 37°57' E 023°35'0 0.0
2016-Nov-27 14:32N 37°57' E 023°35'0 0.0
2016-Nov-27 13:32N 37°57' E 023°35'0 0.0
2016-Nov-27 12:32N 37°57' E 023°35'0 0.0
2016-Nov-27 11:32N 37°57' E 023°35'0 0.0
2016-Nov-27 10:32N 37°57' E 023°35'0 0.0
2016-Nov-27 09:32N 37°57' E 023°35'0 0.0
2016-Nov-27 08:32N 37°57' E 023°35'0 0.0
2016-Nov-27 07:33N 37°57' E 023°35'0 0.0
2016-Nov-27 06:32N 37°57' E 023°35'0 0.0
2016-Nov-27 05:32N 37°57' E 023°35'0 0.0
2016-Nov-27 04:32N 37°57' E 023°35'0 0.0
2016-Nov-27 03:32N 37°57' E 023°35'0 0.0
2016-Nov-27 02:32N 37°57' E 023°35'0 0.0
2016-Nov-27 01:32N 37°57' E 023°35'0 0.0
2016-Nov-27 00:32N 37°57' E 023°35'0 0.0
2016-Nov-26 23:32N 37°57' E 023°35'0 0.0
2016-Nov-26 22:32N 37°57' E 023°35'0 0.0
2016-Nov-26 21:32N 37°57' E 023°35'0 0.0
2016-Nov-26 20:32N 37°57' E 023°35'0 0.0
2016-Nov-26 19:32N 37°57' E 023°35'0 0.0
2016-Nov-26 18:32N 37°57' E 023°35'0 0.0
2016-Nov-26 17:32N 37°57' E 023°35'2 1.8
2016-Nov-26 16:34N 37°56' E 023°34'2 2.4
2016-Nov-26 15:33N 37°53' E 023°36'2 2.5
2016-Nov-26 14:33N 37°52' E 023°33'1 1.0
2016-Nov-26 13:33N 37°51' E 023°34'0 0.4
2016-Nov-26 12:33N 37°50' E 023°34'2 1.9
2016-Nov-26 11:34N 37°52' E 023°35'1 0.9
2016-Nov-26 10:34N 37°53' E 023°35'1 0.7
2016-Nov-26 09:33N 37°52' E 023°35'1 0.7
2016-Nov-26 08:33N 37°52' E 023°36'1 0.8
2016-Nov-26 07:33N 37°51' E 023°36'0 0.5
2016-Nov-26 06:33N 37°51' E 023°37'2 2.5
2016-Nov-26 05:33N 37°53' E 023°35'1 0.8
2016-Nov-26 04:33N 37°54' E 023°35'6 6.5
2016-Nov-26 03:34N 37°49' E 023°40'10 9.5
2016-Nov-26 02:34N 37°41' E 023°46'1413.9
2016-Nov-26 01:33N 37°36' E 024°03'1817.7
2016-Nov-26 00:33N 37°47' E 024°21'13817.2
2016-Nov-25 16:33N 39°48' E 025°45'2116.5
2016-Nov-25 15:18N 40°01' E 026°06'  

Dump ship's entire track history